createdAt,value
2022-09-03T00:00:55.889Z,16.42
2022-09-03T00:03:34.323Z,16.13
2022-09-03T00:06:12.468Z,16.49
2022-09-03T00:09:00.147Z,16.42
2022-09-03T00:11:40.638Z,16.44
2022-09-03T00:14:15.853Z,16.47
2022-09-03T00:17:08.940Z,16.43
2022-09-03T00:20:00.401Z,16.41
2022-09-03T00:22:41.918Z,16.29
2022-09-03T00:25:15.136Z,16.41
2022-09-03T00:27:43.852Z,16.59
2022-09-03T00:30:14.565Z,16.35
2022-09-03T00:32:47.554Z,16.50
2022-09-03T00:35:26.749Z,16.28
2022-09-03T00:37:54.174Z,16.10
2022-09-03T00:40:54.643Z,16.36
2022-09-03T00:43:21.375Z,16.41
2022-09-03T00:46:20.591Z,16.31
2022-09-03T00:48:50.241Z,16.28
2022-09-03T00:51:35.917Z,16.28
2022-09-03T00:54:21.091Z,16.20
2022-09-03T00:57:11.724Z,16.15
2022-09-03T00:59:44.415Z,16.12
2022-09-03T01:02:30.233Z,16.25
2022-09-03T01:05:11.968Z,15.90
2022-09-03T01:07:58.891Z,16.24
2022-09-03T01:10:57.902Z,16.25
2022-09-03T01:13:37.214Z,16.12
2022-09-03T01:16:07.012Z,16.20
2022-09-03T01:19:03.424Z,16.17
2022-09-03T01:21:52.486Z,16.17
2022-09-03T01:24:34.854Z,16.17
2022-09-03T01:27:39.214Z,16.22
2022-09-03T01:30:17.206Z,16.13
2022-09-03T01:33:09.458Z,16.20
2022-09-03T01:35:49.379Z,15.99
2022-09-03T01:38:50.827Z,16.14
2022-09-03T01:41:45.438Z,15.86
2022-09-03T01:44:48.495Z,16.09
2022-09-03T01:47:52.440Z,15.95
2022-09-03T01:50:34.799Z,16.04
2022-09-03T01:53:16.471Z,16.02
2022-09-03T01:56:21.204Z,16.11
2022-09-03T01:59:15.745Z,16.10
2022-09-03T02:01:49.587Z,15.84
2022-09-03T02:04:23.512Z,16.07
2022-09-03T02:06:51.558Z,15.99
2022-09-03T02:09:19.321Z,15.88
2022-09-03T02:11:54.228Z,15.95
2022-09-03T02:14:21.544Z,16.07
2022-09-03T02:16:48.269Z,16.05
2022-09-03T02:19:17.422Z,16.03
2022-09-03T02:21:50.701Z,16.06
2022-09-03T02:24:17.591Z,16.21
2022-09-03T02:26:45.160Z,16.11
2022-09-03T02:29:13.567Z,15.97
2022-09-03T02:31:40.424Z,16.17
2022-09-03T02:34:07.527Z,16.21
2022-09-03T02:36:44.002Z,16.05
2022-09-03T02:39:10.694Z,16.07
2022-09-03T02:41:37.442Z,15.77
2022-09-03T02:44:07.421Z,16.12
2022-09-03T02:47:01.666Z,16.14
2022-09-03T02:49:28.850Z,16.13
2022-09-03T02:52:09.571Z,16.22
2022-09-03T02:54:40.201Z,16.02
2022-09-03T02:57:09.398Z,15.99
2022-09-03T02:59:36.703Z,16.02
2022-09-03T03:02:04.624Z,16.12
2022-09-03T03:04:32.729Z,16.26
2022-09-03T03:06:59.892Z,16.36
2022-09-03T03:09:26.637Z,16.28
2022-09-03T03:11:55.574Z,16.24
2022-09-03T03:14:22.840Z,16.22
2022-09-03T03:16:50.877Z,16.29
2022-09-03T03:19:17.829Z,16.28
2022-09-03T03:21:44.998Z,16.36
2022-09-03T03:24:11.972Z,16.44
2022-09-03T03:26:38.604Z,16.27
2022-09-03T03:29:05.526Z,16.24
2022-09-03T03:31:32.954Z,16.40
2022-09-03T03:34:02.788Z,16.40
2022-09-03T03:36:31.922Z,16.03
2022-09-03T03:39:00.161Z,16.33
2022-09-03T03:41:31.534Z,16.29
2022-09-03T03:44:03.938Z,16.23
2022-09-03T03:46:33.619Z,16.29
2022-09-03T03:49:01.188Z,16.40
2022-09-03T03:51:28.615Z,16.39
2022-09-03T03:53:56.942Z,16.45
2022-09-03T03:56:26.512Z,16.29
2022-09-03T03:58:53.978Z,16.20
2022-09-03T04:01:26.547Z,16.38
2022-09-03T04:03:56.335Z,16.43
2022-09-03T04:06:24.077Z,16.29
2022-09-03T04:08:50.990Z,16.24
2022-09-03T04:11:23.153Z,16.24
2022-09-03T04:13:51.598Z,16.07
2022-09-03T04:16:28.567Z,16.22
2022-09-03T04:18:57.098Z,16.19
2022-09-03T04:21:26.564Z,16.27
2022-09-03T04:23:56.100Z,16.10
2022-09-03T04:26:31.786Z,16.10
2022-09-03T04:29:04.028Z,16.20
2022-09-03T04:31:32.710Z,16.31
2022-09-03T04:33:59.941Z,16.32
2022-09-03T04:36:28.939Z,16.41
2022-09-03T04:38:58.619Z,16.21
2022-09-03T04:41:28.676Z,16.12
2022-09-03T04:43:57.291Z,16.24
2022-09-03T04:46:27.164Z,16.18
2022-09-03T04:48:55.751Z,16.28
2022-09-03T04:51:25.407Z,16.40
2022-09-03T04:54:00.397Z,16.22
2022-09-03T04:56:29.922Z,16.16
2022-09-03T04:58:58.927Z,16.25
2022-09-03T05:01:29.021Z,16.34
2022-09-03T05:03:58.172Z,16.29
2022-09-03T05:06:26.796Z,16.17
2022-09-03T05:08:55.641Z,16.27
2022-09-03T05:11:23.315Z,16.27
2022-09-03T05:13:52.738Z,16.40
2022-09-03T05:16:20.256Z,16.22
2022-09-03T05:18:48.044Z,16.31
2022-09-03T05:21:17.971Z,16.41
2022-09-03T05:23:47.117Z,16.32
2022-09-03T05:26:19.303Z,16.48
2022-09-03T05:28:46.366Z,16.38
2022-09-03T05:31:18.707Z,16.29
2022-09-03T05:33:52.854Z,16.36
2022-09-03T05:36:24.271Z,16.61
2022-09-03T05:38:54.280Z,16.37
2022-09-03T05:41:22.391Z,16.63
2022-09-03T05:43:55.305Z,16.73
2022-09-03T05:46:26.349Z,16.60
2022-09-03T05:48:53.063Z,16.39
2022-09-03T05:51:19.959Z,16.34
2022-09-03T05:53:48.803Z,16.64
2022-09-03T05:56:21.351Z,16.63
2022-09-03T05:58:50.686Z,16.72
2022-09-03T06:01:26.700Z,16.70
2022-09-03T06:04:04.625Z,16.69
2022-09-03T06:06:34.187Z,16.77
2022-09-03T06:09:03.828Z,16.47
2022-09-03T06:11:32.993Z,16.60
2022-09-03T06:14:05.947Z,16.47
2022-09-03T06:16:34.198Z,16.70
2022-09-03T06:19:01.541Z,16.85
2022-09-03T06:21:28.823Z,16.70
2022-09-03T06:23:58.466Z,16.62
2022-09-03T06:26:29.199Z,16.83
2022-09-03T06:28:57.227Z,16.67
2022-09-03T06:31:24.488Z,16.63
2022-09-03T06:34:04.174Z,16.49
2022-09-03T06:36:31.232Z,16.69
2022-09-03T06:38:58.712Z,16.98
2022-09-03T06:41:33.219Z,16.67
2022-09-03T06:44:06.552Z,16.86
2022-09-03T06:46:35.467Z,16.95
2022-09-03T06:49:02.426Z,16.87
2022-09-03T06:51:30.884Z,17.00
2022-09-03T06:54:03.617Z,17.08
2022-09-03T06:56:33.063Z,16.97
2022-09-03T06:59:06.484Z,17.12
2022-09-03T07:01:34.381Z,17.00
2022-09-03T07:04:05.773Z,17.27
2022-09-03T07:06:38.925Z,17.52
2022-09-03T07:09:09.661Z,17.59
2022-09-03T07:11:37.402Z,17.42
2022-09-03T07:14:05.206Z,17.67
2022-09-03T07:16:37.227Z,17.48
2022-09-03T07:19:07.494Z,17.58
2022-09-03T07:21:36.960Z,17.66
2022-09-03T07:24:05.958Z,17.44
2022-09-03T07:26:39.085Z,17.92
2022-09-03T07:29:07.848Z,18.47
2022-09-03T07:31:38.057Z,18.27
2022-09-03T07:34:10.062Z,18.13
2022-09-03T07:36:43.193Z,17.98
2022-09-03T07:39:12.713Z,17.98
2022-09-03T07:41:43.419Z,17.94
2022-09-03T07:44:10.715Z,17.59
2022-09-03T07:46:38.944Z,17.63
2022-09-03T07:49:06.553Z,17.29
2022-09-03T07:51:38.561Z,17.53
2022-09-03T07:54:10.103Z,17.38
2022-09-03T07:56:37.878Z,17.40
2022-09-03T07:59:05.698Z,17.50
2022-09-03T08:01:34.022Z,17.47
2022-09-03T08:04:02.260Z,17.32
2022-09-03T08:06:31.336Z,17.54
2022-09-03T08:09:04.841Z,17.67
2022-09-03T08:11:35.310Z,17.60
2022-09-03T08:14:07.786Z,17.54
2022-09-03T08:16:38.109Z,17.36
2022-09-03T08:19:05.351Z,17.63
2022-09-03T08:21:32.279Z,17.46
2022-09-03T08:24:05.887Z,17.76
2022-09-03T08:26:35.273Z,17.51
2022-09-03T08:29:02.623Z,17.68
2022-09-03T08:31:30.171Z,17.46
2022-09-03T08:33:59.405Z,17.53
2022-09-03T08:36:30.215Z,17.52
2022-09-03T08:38:58.719Z,17.57
2022-09-03T08:41:45.001Z,17.49
2022-09-03T08:44:17.726Z,17.49
2022-09-03T08:46:51.412Z,17.55
2022-09-03T08:49:37.745Z,17.40
2022-09-03T08:52:15.533Z,17.29
2022-09-03T08:54:42.688Z,17.69
2022-09-03T08:57:09.907Z,17.43
2022-09-03T08:59:37.420Z,17.71
2022-09-03T09:02:16.973Z,17.71
2022-09-03T09:05:14.354Z,17.88
2022-09-03T09:08:10.628Z,18.25
2022-09-03T09:10:37.334Z,18.28
2022-09-03T09:13:20.667Z,18.19
2022-09-03T09:15:56.357Z,18.39
2022-09-03T09:18:38.484Z,18.38
2022-09-03T09:21:22.017Z,18.32
2022-09-03T09:23:51.679Z,18.54
2022-09-03T09:26:24.310Z,18.28
2022-09-03T09:29:09.528Z,18.64
2022-09-03T09:31:40.172Z,18.37
2022-09-03T09:34:08.632Z,18.21
2022-09-03T09:36:52.381Z,18.55
2022-09-03T09:39:19.965Z,18.81
2022-09-03T09:42:23.238Z,18.91
2022-09-03T09:44:50.023Z,18.66
2022-09-03T09:47:35.982Z,18.55
2022-09-03T09:50:04.100Z,18.76
2022-09-03T09:52:31.785Z,18.92
2022-09-03T09:55:10.783Z,19.07
2022-09-03T09:57:39.671Z,19.34
2022-09-03T10:00:13.624Z,19.59
2022-09-03T10:02:47.376Z,19.34
2022-09-03T10:05:20.004Z,19.78
2022-09-03T10:07:59.480Z,19.76
2022-09-03T10:10:27.339Z,19.47
2022-09-03T10:13:03.128Z,19.92
2022-09-03T10:15:29.820Z,19.76
2022-09-03T10:18:28.850Z,19.84
2022-09-03T10:21:11.224Z,20.02
2022-09-03T10:24:07.489Z,20.29
2022-09-03T10:26:37.066Z,20.04
2022-09-03T10:29:07.166Z,19.77
2022-09-03T10:31:54.419Z,20.17
2022-09-03T10:35:05.538Z,20.19
2022-09-03T10:37:55.874Z,20.03
2022-09-03T10:40:50.705Z,19.58
2022-09-03T10:43:33.332Z,19.94
2022-09-03T10:46:06.582Z,20.11
2022-09-03T10:49:18.367Z,19.90
2022-09-03T10:52:02.241Z,20.37
2022-09-03T10:54:55.396Z,20.54
2022-09-03T10:57:43.915Z,20.36
2022-09-03T11:00:13.290Z,20.24
2022-09-03T11:02:41.283Z,20.35
2022-09-03T11:05:19.130Z,20.21
2022-09-03T11:08:12.575Z,19.87
2022-09-03T11:10:41.672Z,20.11
2022-09-03T11:13:14.296Z,19.96
2022-09-03T11:16:20.283Z,19.46
2022-09-03T11:18:54.131Z,20.13
2022-09-03T11:21:26.326Z,20.15
2022-09-03T11:24:04.384Z,20.04
2022-09-03T11:26:32.117Z,19.99
2022-09-03T11:29:10.202Z,20.18
2022-09-03T11:31:49.961Z,20.08
2022-09-03T11:34:23.405Z,20.30
2022-09-03T11:37:17.583Z,20.37
2022-09-03T11:39:45.583Z,20.08
2022-09-03T11:42:24.121Z,19.95
2022-09-03T11:44:52.124Z,19.92
2022-09-03T11:47:24.750Z,19.88
2022-09-03T11:49:54.168Z,20.12
2022-09-03T11:52:32.615Z,20.19
2022-09-03T11:54:59.359Z,20.25
2022-09-03T11:57:29.900Z,20.10
2022-09-03T12:00:13.301Z,20.05
2022-09-03T12:02:54.287Z,19.97
2022-09-03T12:05:32.938Z,19.89
2022-09-03T12:08:21.507Z,20.23
2022-09-03T12:10:54.431Z,20.29
2022-09-03T12:13:40.603Z,20.06
2022-09-03T12:16:29.119Z,20.12
2022-09-03T12:19:01.041Z,20.13
2022-09-03T12:21:27.786Z,20.30
2022-09-03T12:23:58.068Z,20.40
2022-09-03T12:26:27.626Z,20.69
2022-09-03T12:28:59.184Z,20.67
2022-09-03T12:31:29.848Z,20.39
2022-09-03T12:33:59.642Z,20.80
2022-09-03T12:36:37.052Z,20.73
2022-09-03T12:39:12.678Z,20.56
2022-09-03T12:41:52.469Z,20.48
2022-09-03T12:44:30.129Z,20.86
2022-09-03T12:50:07.413Z,20.67
2022-09-03T12:52:43.548Z,20.82
2022-09-03T12:55:51.678Z,20.41
2022-09-03T12:58:25.747Z,20.20
2022-09-03T13:01:01.152Z,20.61
2022-09-03T13:03:32.666Z,20.57
2022-09-03T13:06:03.586Z,19.99
2022-09-03T13:08:41.463Z,19.90
2022-09-03T13:11:08.175Z,20.01
2022-09-03T13:13:37.841Z,20.02
2022-09-03T13:16:33.087Z,20.20
2022-09-03T13:19:29.523Z,20.34
2022-09-03T13:22:27.387Z,19.96
2022-09-03T13:25:12.879Z,20.38
2022-09-03T13:27:54.044Z,20.43
2022-09-03T13:30:23.452Z,20.17
2022-09-03T13:33:02.568Z,19.83
2022-09-03T13:35:40.346Z,20.14
2022-09-03T13:38:10.190Z,20.00
2022-09-03T13:40:48.723Z,19.73
2022-09-03T13:43:42.626Z,19.37
2022-09-03T13:46:27.464Z,19.72
2022-09-03T13:49:28.022Z,19.37
2022-09-03T13:52:04.123Z,19.68
2022-09-03T13:54:48.547Z,19.72
2022-09-03T13:57:32.839Z,19.77
2022-09-03T13:59:59.521Z,19.77
2022-09-03T14:02:54.249Z,19.73
2022-09-03T14:06:02.768Z,19.96
2022-09-03T14:09:12.696Z,20.16
2022-09-03T14:12:03.167Z,20.05
2022-09-03T14:14:51.675Z,19.92
2022-09-03T14:17:45.917Z,20.02
2022-09-03T14:20:21.157Z,19.74
2022-09-03T14:23:02.507Z,19.79
2022-09-03T14:25:29.706Z,19.44
2022-09-03T14:28:14.518Z,19.27
2022-09-03T14:30:55.755Z,19.44
2022-09-03T14:33:38.179Z,19.36
2022-09-03T14:36:10.976Z,19.47
2022-09-03T14:38:53.960Z,19.29
2022-09-03T14:41:57.281Z,19.25
2022-09-03T14:44:54.860Z,19.39
2022-09-03T14:47:53.915Z,19.33
2022-09-03T14:50:45.413Z,19.46
2022-09-03T14:53:12.197Z,19.60
2022-09-03T14:55:41.775Z,19.65
2022-09-03T14:58:46.959Z,19.58
2022-09-03T15:01:39.060Z,19.53
2022-09-03T15:04:28.638Z,19.50
2022-09-03T15:07:24.168Z,19.73
2022-09-03T15:10:10.655Z,19.74
2022-09-03T15:12:58.672Z,19.68
2022-09-03T15:15:38.574Z,19.59
2022-09-03T15:18:21.467Z,19.84
2022-09-03T15:21:05.380Z,19.44
2022-09-03T15:24:00.024Z,19.92
2022-09-03T15:26:29.721Z,19.45
2022-09-03T15:29:06.344Z,19.25
2022-09-03T15:32:11.759Z,19.75
2022-09-03T15:34:55.291Z,19.49
2022-09-03T15:37:46.650Z,19.37
2022-09-03T15:40:34.854Z,19.74
2022-09-03T15:43:16.051Z,19.69
2022-09-03T15:46:10.946Z,19.86
2022-09-03T15:49:05.668Z,19.59
2022-09-03T15:51:47.245Z,19.54
2022-09-03T15:54:27.276Z,19.67
2022-09-03T15:57:01.849Z,19.79
2022-09-03T15:59:55.565Z,19.66
2022-09-03T16:02:52.497Z,19.82
2022-09-03T16:05:39.387Z,19.72
2022-09-03T16:08:29.916Z,19.82
2022-09-03T16:11:28.884Z,19.54
2022-09-03T16:14:21.985Z,18.91
2022-09-03T16:17:40.204Z,19.11
2022-09-03T16:20:15.215Z,19.20
2022-09-03T16:22:50.314Z,19.05
2022-09-03T16:25:28.992Z,19.21
2022-09-03T16:28:10.294Z,19.04
2022-09-03T16:30:39.535Z,19.07
2022-09-03T16:33:22.495Z,19.19
2022-09-03T16:36:06.403Z,19.25
2022-09-03T16:39:12.826Z,19.20
2022-09-03T16:41:48.577Z,19.17
2022-09-03T16:44:38.863Z,19.23
2022-09-03T16:47:20.539Z,19.04
2022-09-03T16:50:14.376Z,19.08
2022-09-03T16:52:59.971Z,19.15
2022-09-03T16:56:00.111Z,18.95
2022-09-03T16:59:09.780Z,18.95
2022-09-03T17:01:36.637Z,18.90
2022-09-03T17:04:15.755Z,18.87
2022-09-03T17:06:54.561Z,18.56
2022-09-03T17:09:47.205Z,18.78
2022-09-03T17:12:39.031Z,18.56
2022-09-03T17:15:34.644Z,18.56
2022-09-03T17:18:28.768Z,18.38
2022-09-03T17:21:26.426Z,18.58
2022-09-03T17:24:20.623Z,18.39
2022-09-03T17:27:11.272Z,18.32
2022-09-03T17:29:56.641Z,18.36
2022-09-03T17:32:32.395Z,18.26
2022-09-03T17:35:16.314Z,18.12
2022-09-03T17:38:14.058Z,17.95
2022-09-03T17:41:03.613Z,17.88
2022-09-03T17:43:55.543Z,18.30
2022-09-03T17:46:31.338Z,18.17
2022-09-03T17:49:03.168Z,18.15
2022-09-03T17:51:58.511Z,18.07
2022-09-03T17:54:38.384Z,18.03
2022-09-03T17:57:30.975Z,18.08
2022-09-03T18:00:03.079Z,18.03
2022-09-03T18:02:43.333Z,17.81
2022-09-03T18:05:24.341Z,17.88
2022-09-03T18:07:57.175Z,17.89
2022-09-03T18:10:42.121Z,17.42
2022-09-03T18:13:50.422Z,17.80
2022-09-03T18:16:31.918Z,17.70
2022-09-03T18:19:18.338Z,17.56
2022-09-03T18:22:06.232Z,17.64
2022-09-03T18:25:01.962Z,17.40
2022-09-03T18:28:05.513Z,17.13
2022-09-03T18:30:53.194Z,17.07
2022-09-03T18:33:43.996Z,17.42
2022-09-03T18:36:32.422Z,17.32
2022-09-03T18:39:26.695Z,17.22
2022-09-03T18:42:24.545Z,17.16
2022-09-03T18:46:05.525Z,17.00
2022-09-03T18:52:04.823Z,17.29
2022-09-03T18:55:07.765Z,17.07
2022-09-03T18:58:12.971Z,17.18
2022-09-03T19:01:16.367Z,16.99
2022-09-03T19:04:24.492Z,17.17
2022-09-03T19:07:26.257Z,16.97
2022-09-03T19:10:36.401Z,16.84
2022-09-03T19:13:30.697Z,17.10
2022-09-03T19:16:28.403Z,17.00
2022-09-03T19:19:42.184Z,17.17
2022-09-03T19:22:29.271Z,17.06
2022-09-03T19:25:23.584Z,17.07
2022-09-03T19:28:44.311Z,16.99
2022-09-03T19:31:54.776Z,17.33
2022-09-03T19:35:04.965Z,17.12
2022-09-03T19:38:04.361Z,17.07
2022-09-03T19:40:58.774Z,17.10
2022-09-03T19:43:56.272Z,17.17
2022-09-03T19:50:18.769Z,17.15
2022-09-03T19:53:11.911Z,17.12
2022-09-03T19:56:07.142Z,17.10
2022-09-03T20:01:56.427Z,16.72
2022-09-03T20:04:50.147Z,16.84
2022-09-03T20:07:37.248Z,16.73
2022-09-03T20:10:23.704Z,16.88
2022-09-03T20:12:59.290Z,16.85
2022-09-03T20:15:51.917Z,16.83
2022-09-03T20:18:36.181Z,16.73
2022-09-03T20:21:22.045Z,16.95
2022-09-03T20:24:04.959Z,16.95
2022-09-03T20:26:59.550Z,17.04
2022-09-03T20:29:52.631Z,16.98
2022-09-03T20:32:54.150Z,16.96
2022-09-03T20:35:25.682Z,16.85
2022-09-03T20:38:07.557Z,17.07
2022-09-03T20:41:12.627Z,17.03
2022-09-03T20:43:55.715Z,16.87
2022-09-03T20:46:28.435Z,17.00
2022-09-03T20:49:05.435Z,16.87
2022-09-03T20:52:06.565Z,17.15
2022-09-03T20:54:38.723Z,16.98
2022-09-03T20:57:23.239Z,17.00
2022-09-03T21:00:14.161Z,17.07
2022-09-03T21:03:00.137Z,17.14
2022-09-03T21:05:38.226Z,16.96
2022-09-03T21:08:30.027Z,16.94
2022-09-03T21:11:04.254Z,16.81
2022-09-03T21:14:09.927Z,17.03
2022-09-03T21:16:45.705Z,17.02
2022-09-03T21:19:48.882Z,16.99
2022-09-03T21:22:24.724Z,16.98
2022-09-03T21:24:58.578Z,17.05
2022-09-03T21:27:35.230Z,16.96
2022-09-03T21:30:13.110Z,16.90
2022-09-03T21:32:42.921Z,17.14
2022-09-03T21:35:30.558Z,17.11
2022-09-03T21:38:05.891Z,17.07
2022-09-03T21:40:35.079Z,16.99
2022-09-03T21:43:15.246Z,16.98
2022-09-03T21:46:06.280Z,17.03
2022-09-03T21:48:56.851Z,17.00
2022-09-03T21:51:26.593Z,17.02
2022-09-03T21:54:14.126Z,16.95
2022-09-03T21:57:02.463Z,16.94
2022-09-03T21:59:35.224Z,16.93
2022-09-03T22:02:27.332Z,16.98
2022-09-03T22:04:56.296Z,16.70
2022-09-03T22:08:00.697Z,16.94
2022-09-03T22:11:05.650Z,17.07
2022-09-03T22:13:47.783Z,17.11
2022-09-03T22:16:30.366Z,16.81
2022-09-03T22:18:57.497Z,16.98
2022-09-03T22:21:36.670Z,16.96
2022-09-03T22:24:23.269Z,16.85
2022-09-03T22:27:02.952Z,17.06
2022-09-03T22:29:41.059Z,17.09
2022-09-03T22:32:35.739Z,17.09
2022-09-03T22:35:29.771Z,17.03
2022-09-03T22:38:14.744Z,17.12
2022-09-03T22:41:22.969Z,17.07
2022-09-03T22:43:54.668Z,16.95
2022-09-03T22:46:23.539Z,17.02
2022-09-03T22:48:53.380Z,16.93
2022-09-03T22:51:21.896Z,16.92
2022-09-03T22:54:28.375Z,17.01
2022-09-03T22:56:58.148Z,16.97
2022-09-03T22:59:47.767Z,17.14
2022-09-03T23:02:20.943Z,17.02
2022-09-03T23:05:06.287Z,17.02
2022-09-03T23:07:48.076Z,17.01
2022-09-03T23:10:26.059Z,17.01
2022-09-03T23:13:21.207Z,16.91
2022-09-03T23:16:01.374Z,17.02
2022-09-03T23:18:30.999Z,17.05
2022-09-03T23:21:31.968Z,17.12
2022-09-03T23:24:05.878Z,17.01
2022-09-03T23:26:40.530Z,17.05
2022-09-03T23:29:46.070Z,17.05
2022-09-03T23:32:13.010Z,17.00
2022-09-03T23:34:40.761Z,16.99
2022-09-03T23:38:18.306Z,17.11
2022-09-03T23:40:49.882Z,17.13
2022-09-03T23:43:41.132Z,17.18
2022-09-03T23:46:17.079Z,17.16
2022-09-03T23:49:13.918Z,17.12
2022-09-03T23:51:55.971Z,17.17
2022-09-03T23:54:22.659Z,17.20
2022-09-03T23:57:08.393Z,17.14
